Terminal Aerodrome Forecast
Issued by NWS

Home | Current Version | Previous Version | Text Only | Print | Product List | Glossary Off
Versions: 1 2 3 4 5 6 7 8 9 10 11 12 13 14 15 16 17 18 19 20 21 22

000
FTUS43 KBIS 252300
TAFMOT
TAF
KMOT 252324Z 2600/2624 25011KT P6SM SKC
     FM260200 23006KT P6SM SKC
     FM261300 25018G25KT P6SM SCT230
     FM261600 27024G35KT P6SM VCSH BKN060=

USA.gov is the U.S. government's official web portal to all federal, state and local government web resources and services.